< < Back
Terminal Aerodrome Forecast


Current Version              Previous Versions:   1  2  3  4  5  6  7  8  9  

Terminal Aerodrome Forecast

902
FTUS42 KGSP 231700
TAFAND
TAF
KAND 231722Z 2318/2418 34003KT P6SM SKC
     FM240100 07004KT P6SM SKC
     FM241500 08010KT P6SM SKC=



Latest METAR

167
SAUS70 KWBC 241100 RRD
MTRAND
METAR KAND 241056Z AUTO 05004KT 10SM CLR 11/00 A3007 RMK AO2 SLP176
T01060000


USA.gov is the U.S. government's official web portal to all federal, state and local government web resources and services.